createdAt,value
2019-02-10T00:01:46.344Z,99663.55
2019-02-10T00:04:13.982Z,99658.09
2019-02-10T00:06:41.132Z,99651.50
2019-02-10T00:09:08.620Z,99655.12
2019-02-10T00:11:36.186Z,99648.28
2019-02-10T00:14:03.084Z,99647.32
2019-02-10T00:16:30.476Z,99651.17
2019-02-10T00:18:57.856Z,99644.83
2019-02-10T00:21:25.494Z,99643.11
2019-02-10T00:23:52.542Z,99641.61
2019-02-10T00:26:20.067Z,99643.00
2019-02-10T00:28:47.367Z,99641.61
2019-02-10T00:31:14.769Z,99645.92
2019-02-10T00:33:44.732Z,99643.30
2019-02-10T00:36:11.558Z,99633.78
2019-02-10T00:38:38.685Z,99627.96
2019-02-10T00:41:05.450Z,99632.28
2019-02-10T00:43:32.228Z,99632.77
2019-02-10T00:45:59.202Z,99631.28
2019-02-10T00:48:27.413Z,99624.05
2019-02-10T00:50:55.353Z,99626.14
2019-02-10T00:53:22.694Z,99624.12
2019-02-10T00:55:49.357Z,99620.97
2019-02-10T00:58:16.296Z,99623.47
2019-02-10T01:00:43.451Z,99628.84
2019-02-10T01:03:10.998Z,99623.84
2019-02-10T01:05:38.028Z,99620.77
2019-02-10T01:08:06.734Z,99616.25
2019-02-10T01:10:34.796Z,99609.34
2019-02-10T01:13:01.469Z,99605.00
2019-02-10T01:15:28.382Z,99605.97
2019-02-10T01:17:55.185Z,99605.77
2019-02-10T01:20:22.427Z,99545.09
2019-02-10T01:22:49.942Z,99606.95
2019-02-10T01:25:16.701Z,99606.84
2019-02-10T01:27:43.879Z,99601.28
2019-02-10T01:30:12.313Z,99593.47
2019-02-10T01:32:38.978Z,99585.61
2019-02-10T01:35:06.601Z,99581.30
2019-02-10T01:37:34.242Z,99582.08
2019-02-10T01:40:01.177Z,99577.58
2019-02-10T01:42:28.214Z,99577.88
2019-02-10T01:44:56.839Z,99576.80
2019-02-10T01:47:24.298Z,99572.51
2019-02-10T01:49:52.571Z,99574.16
2019-02-10T01:52:19.930Z,99574.44
2019-02-10T01:54:47.189Z,99566.69
2019-02-10T01:57:13.859Z,99556.79
2019-02-10T01:59:42.177Z,99556.81
2019-02-10T02:02:09.250Z,99556.06
2019-02-10T02:04:36.270Z,99551.95
2019-02-10T02:07:03.326Z,99550.77
2019-02-10T02:09:32.125Z,99545.80
2019-02-10T02:11:59.452Z,99551.95
2019-02-10T02:14:26.630Z,99544.08
2019-02-10T02:16:53.530Z,99542.65
2019-02-10T02:19:20.714Z,99530.86
2019-02-10T02:21:47.404Z,99532.75
2019-02-10T02:24:14.657Z,99530.19
2019-02-10T02:26:42.147Z,99522.79
2019-02-10T02:29:09.347Z,99511.76
2019-02-10T02:31:36.991Z,99506.96
2019-02-10T02:34:05.083Z,99517.11
2019-02-10T02:36:34.274Z,99514.16
2019-02-10T02:39:01.706Z,99506.21
2019-02-10T02:41:30.403Z,99506.96
2019-02-10T02:43:57.350Z,99503.89
2019-02-10T02:46:24.526Z,99502.70
2019-02-10T02:48:51.875Z,99494.72
2019-02-10T02:51:19.299Z,99487.62
2019-02-10T02:53:46.326Z,99494.52
2019-02-10T02:56:13.044Z,99490.30
2019-02-10T02:58:40.113Z,99480.33
2019-02-10T03:01:07.366Z,99481.29
2019-02-10T03:03:36.186Z,99476.77
2019-02-10T03:06:03.424Z,99481.11
2019-02-10T03:08:30.120Z,99470.36
2019-02-10T03:10:57.628Z,99460.86
2019-02-10T03:13:25.074Z,99458.65
2019-02-10T03:15:52.199Z,99450.70
2019-02-10T03:18:19.352Z,99446.55
2019-02-10T03:20:46.455Z,99449.43
2019-02-10T03:23:14.098Z,99446.27
2019-02-10T03:25:42.976Z,99446.63
2019-02-10T03:28:10.145Z,99437.41
2019-02-10T03:30:37.890Z,99436.34
2019-02-10T03:33:05.749Z,99425.69
2019-02-10T03:35:33.066Z,99430.67
2019-02-10T03:38:00.550Z,99425.80
2019-02-10T03:40:27.805Z,99422.94
2019-02-10T03:42:54.583Z,99418.14
2019-02-10T03:45:22.814Z,99411.48
2019-02-10T03:47:49.767Z,99411.38
2019-02-10T03:50:17.030Z,99413.47
2019-02-10T03:52:44.795Z,99401.97
2019-02-10T03:55:12.266Z,99400.90
2019-02-10T03:57:39.043Z,99390.78
2019-02-10T04:00:06.990Z,99398.69
2019-02-10T04:02:34.372Z,99398.23
2019-02-10T04:05:02.997Z,99400.22
2019-02-10T04:07:35.949Z,99401.36
2019-02-10T04:09:58.795Z,99389.25
2019-02-10T04:12:25.968Z,99389.42
2019-02-10T04:14:53.749Z,99385.07
2019-02-10T04:17:21.166Z,99381.50
2019-02-10T04:19:48.353Z,99379.35
2019-02-10T04:22:15.462Z,99374.31
2019-02-10T04:24:42.846Z,99364.12
2019-02-10T04:27:09.504Z,99365.38
2019-02-10T04:29:36.745Z,99360.85
2019-02-10T04:32:03.644Z,99358.75
2019-02-10T04:34:30.714Z,99358.97
2019-02-10T04:36:57.830Z,99347.13
2019-02-10T04:39:24.728Z,99354.78
2019-02-10T04:41:51.760Z,99341.16
2019-02-10T04:44:18.660Z,99333.28
2019-02-10T04:46:45.879Z,99322.68
2019-02-10T04:49:12.797Z,99325.17
2019-02-10T04:51:39.579Z,99306.46
2019-02-10T04:54:06.439Z,99308.66
2019-02-10T04:56:33.216Z,99302.25
2019-02-10T04:58:59.887Z,99305.45
2019-02-10T05:01:26.719Z,99291.09
2019-02-10T05:03:53.478Z,99287.75
2019-02-10T05:06:20.198Z,99283.38
2019-02-10T05:08:47.363Z,99275.73
2019-02-10T05:11:14.996Z,99268.02
2019-02-10T05:13:42.218Z,99260.46
2019-02-10T05:16:09.726Z,99258.59
2019-02-10T05:18:37.285Z,99257.80
2019-02-10T05:21:04.980Z,99251.86
2019-02-10T05:23:31.676Z,99242.83
2019-02-10T05:25:59.440Z,99249.36
2019-02-10T05:28:26.386Z,99240.80
2019-02-10T05:30:53.883Z,99238.23
2019-02-10T05:33:20.558Z,99237.67
2019-02-10T05:35:47.901Z,99234.94
2019-02-10T05:38:15.250Z,99225.20
2019-02-10T05:40:42.678Z,99219.28
2019-02-10T05:43:09.438Z,99216.94
2019-02-10T05:45:36.947Z,99218.58
2019-02-10T05:48:03.788Z,99215.23
2019-02-10T05:50:31.760Z,99203.61
2019-02-10T05:52:59.530Z,99202.19
2019-02-10T05:55:26.477Z,99194.54
2019-02-10T05:57:53.392Z,99184.51
2019-02-10T06:00:20.879Z,99182.08
2019-02-10T06:02:49.102Z,99181.69
2019-02-10T06:05:21.563Z,99169.61
2019-02-10T06:07:48.615Z,99176.92
2019-02-10T06:10:16.001Z,99171.18
2019-02-10T06:12:43.234Z,99157.69
2019-02-10T06:15:10.692Z,99148.17
2019-02-10T06:17:37.629Z,99155.49
2019-02-10T06:20:05.601Z,99156.13
2019-02-10T06:22:32.662Z,99142.07
2019-02-10T06:24:59.360Z,99140.60
2019-02-10T06:27:26.017Z,99135.23
2019-02-10T06:29:52.937Z,99136.95
2019-02-10T06:32:19.611Z,99120.66
2019-02-10T06:34:46.274Z,99108.81
2019-02-10T06:37:13.858Z,99106.53
2019-02-10T06:39:41.506Z,99101.16
2019-02-10T06:42:08.977Z,99096.56
2019-02-10T06:44:36.209Z,99087.77
2019-02-10T06:47:03.112Z,99079.64
2019-02-10T06:49:29.895Z,99076.46
2019-02-10T06:51:57.031Z,99084.08
2019-02-10T06:54:24.179Z,99080.73
2019-02-10T06:56:51.697Z,99073.72
2019-02-10T06:59:34.800Z,99077.16
2019-02-10T07:02:06.331Z,99063.68
2019-02-10T07:04:33.035Z,99063.28
2019-02-10T07:07:00.630Z,99061.64
2019-02-10T07:09:27.942Z,99056.03
2019-02-10T07:11:54.742Z,99044.84
2019-02-10T07:14:25.102Z,99039.47
2019-02-10T07:17:30.208Z,99040.30
2019-02-10T07:20:46.285Z,99031.13
2019-02-10T07:23:58.285Z,99024.96
2019-02-10T07:26:57.921Z,99026.11
2019-02-10T07:30:03.555Z,99014.15
2019-02-10T07:32:36.461Z,99016.31
2019-02-10T07:35:25.454Z,99002.98
2019-02-10T07:38:09.401Z,98993.80
2019-02-10T07:41:03.086Z,98989.05
2019-02-10T07:44:03.222Z,98978.00
2019-02-10T07:47:02.342Z,98979.97
2019-02-10T07:50:00.305Z,98972.23
2019-02-10T07:52:59.093Z,98956.67
2019-02-10T07:55:48.926Z,98956.81
2019-02-10T07:59:03.237Z,98948.42
2019-02-10T08:02:03.954Z,98936.56
2019-02-10T08:05:21.801Z,98922.58
2019-02-10T08:08:46.580Z,98919.14
2019-02-10T08:11:45.010Z,98909.41
2019-02-10T08:15:00.493Z,98900.62
2019-02-10T08:17:53.686Z,98886.22
2019-02-10T08:21:33.178Z,98878.15
2019-02-10T08:24:41.499Z,98873.17
2019-02-10T08:27:30.253Z,98867.78
2019-02-10T08:30:14.351Z,98856.52
2019-02-10T08:33:12.753Z,98845.86
2019-02-10T08:36:14.185Z,98843.65
2019-02-10T08:39:19.108Z,98832.59
2019-02-10T08:42:21.861Z,98820.27
2019-02-10T08:45:11.997Z,98806.80
2019-02-10T08:48:27.305Z,98794.33
2019-02-10T08:51:34.187Z,98790.75
2019-02-10T08:54:01.520Z,98778.95
2019-02-10T08:56:29.008Z,98767.95
2019-02-10T08:58:55.708Z,98760.58
2019-02-10T09:01:22.713Z,98755.78
2019-02-10T09:03:50.116Z,98746.09
2019-02-10T09:06:17.077Z,98731.00
2019-02-10T09:08:44.437Z,98725.23
2019-02-10T09:11:11.499Z,98720.25
2019-02-10T09:13:38.526Z,98704.81
2019-02-10T09:16:06.098Z,98701.73
2019-02-10T09:18:33.424Z,98683.50
2019-02-10T09:21:00.491Z,98679.17
2019-02-10T09:23:27.558Z,98667.27
2019-02-10T09:25:54.542Z,98664.48
2019-02-10T09:28:21.247Z,98653.92
2019-02-10T09:30:47.963Z,98652.13
2019-02-10T09:33:14.625Z,98639.72
2019-02-10T09:35:41.913Z,98630.22
2019-02-10T09:38:09.115Z,98626.95
2019-02-10T09:40:35.871Z,98607.38
2019-02-10T09:43:03.014Z,98595.88
2019-02-10T09:45:30.060Z,98591.35
2019-02-10T09:47:57.467Z,98571.78
2019-02-10T09:50:24.678Z,98561.98
2019-02-10T09:52:52.126Z,98548.55
2019-02-10T09:55:18.928Z,98538.59
2019-02-10T09:57:46.418Z,98525.35
2019-02-10T10:00:13.537Z,98511.86
2019-02-10T10:02:40.802Z,98509.31
2019-02-10T10:05:09.105Z,98503.94
2019-02-10T10:07:36.664Z,98499.27
2019-02-10T10:10:04.744Z,98496.62
2019-02-10T10:12:32.469Z,98494.75
2019-02-10T10:15:00.192Z,98484.17
2019-02-10T10:17:27.814Z,98469.70
2019-02-10T10:19:55.378Z,98460.98
2019-02-10T10:22:23.434Z,98457.31
2019-02-10T10:24:50.733Z,98448.34
2019-02-10T10:27:18.102Z,98443.64
2019-02-10T10:29:45.692Z,98452.16
2019-02-10T10:32:12.369Z,98447.18
2019-02-10T10:34:39.678Z,98437.48
2019-02-10T10:37:06.963Z,98419.83
2019-02-10T10:39:33.664Z,98418.34
2019-02-10T10:42:00.899Z,98409.16
2019-02-10T10:44:28.094Z,98390.69
2019-02-10T10:46:55.407Z,98385.23
2019-02-10T10:49:23.111Z,98378.63
2019-02-10T10:51:50.191Z,98375.63
2019-02-10T10:54:18.235Z,98344.11
2019-02-10T10:56:45.537Z,98343.00
2019-02-10T10:59:12.257Z,98331.79
2019-02-10T11:01:38.945Z,98331.25
2019-02-10T11:04:05.623Z,98314.45
2019-02-10T11:06:34.007Z,98309.16
2019-02-10T11:09:01.103Z,98310.38
2019-02-10T11:11:29.406Z,98299.05
2019-02-10T11:13:57.519Z,98295.00
2019-02-10T11:16:24.219Z,98279.59
2019-02-10T11:18:51.301Z,98272.69
2019-02-10T11:21:18.654Z,98263.69
2019-02-10T11:23:45.598Z,98262.80
2019-02-10T11:26:13.159Z,98246.38
2019-02-10T11:28:40.667Z,98239.55
2019-02-10T11:31:07.442Z,98233.92
2019-02-10T11:33:34.193Z,98223.38
2019-02-10T11:36:00.965Z,98213.11
2019-02-10T11:38:28.754Z,98204.92
2019-02-10T11:40:55.471Z,98199.66
2019-02-10T11:43:25.299Z,98206.45
2019-02-10T11:45:54.233Z,98197.33
2019-02-10T11:48:21.960Z,98183.78
2019-02-10T11:50:48.991Z,98168.44
2019-02-10T11:53:16.687Z,98158.99
2019-02-10T11:55:43.367Z,98161.37
2019-02-10T11:58:10.889Z,98160.76
2019-02-10T12:00:38.076Z,98157.43
2019-02-10T12:03:05.971Z,98152.76
2019-02-10T12:05:33.134Z,98144.64
2019-02-10T12:07:59.801Z,98145.87
2019-02-10T12:10:26.589Z,98140.56
2019-02-10T12:12:54.502Z,98124.38
2019-02-10T12:15:21.742Z,98116.20
2019-02-10T12:17:48.461Z,98102.20
2019-02-10T12:20:15.734Z,98102.31
2019-02-10T12:22:49.987Z,98081.92
2019-02-10T12:25:13.018Z,98081.81
2019-02-10T12:27:40.292Z,98069.91
2019-02-10T12:30:09.814Z,98057.25
2019-02-10T12:32:36.599Z,98054.16
2019-02-10T12:35:03.707Z,98044.91
2019-02-10T12:37:32.514Z,98048.56
2019-02-10T12:40:00.099Z,98043.62
2019-02-10T12:42:27.606Z,98031.53
2019-02-10T12:44:55.414Z,98015.59
2019-02-10T12:47:23.162Z,98009.25
2019-02-10T12:49:49.851Z,98001.53
2019-02-10T12:52:17.665Z,98012.24
2019-02-10T12:54:45.339Z,98007.14
2019-02-10T12:57:12.395Z,98000.98
2019-02-10T12:59:39.194Z,97989.03
2019-02-10T13:02:05.973Z,97979.72
2019-02-10T13:04:33.730Z,97966.94
2019-02-10T13:07:01.597Z,97964.45
2019-02-10T13:09:28.269Z,97958.42
2019-02-10T13:11:58.472Z,97953.56
2019-02-10T13:14:25.620Z,97943.60
2019-02-10T13:16:52.304Z,97944.71
2019-02-10T13:19:19.792Z,97935.65
2019-02-10T13:21:46.945Z,97930.52
2019-02-10T13:24:14.177Z,97922.24
2019-02-10T13:26:40.857Z,97927.00
2019-02-10T13:29:07.796Z,97922.27
2019-02-10T13:31:34.593Z,97912.34
2019-02-10T13:34:01.475Z,97906.87
2019-02-10T13:36:28.391Z,97901.41
2019-02-10T13:38:55.477Z,97894.25
2019-02-10T13:41:22.623Z,97882.72
2019-02-10T13:43:49.302Z,97880.38
2019-02-10T13:46:16.271Z,97878.44
2019-02-10T13:48:43.273Z,97882.53
2019-02-10T13:51:10.214Z,97882.47
2019-02-10T13:53:36.927Z,97887.08
2019-02-10T13:56:04.072Z,97878.07
2019-02-10T13:58:31.253Z,97875.67
2019-02-10T14:00:59.518Z,97869.34
2019-02-10T14:03:26.454Z,97867.16
2019-02-10T14:05:53.492Z,97855.91
2019-02-10T14:08:21.087Z,97859.98
2019-02-10T14:10:48.201Z,97855.19
2019-02-10T14:13:15.769Z,97855.72
2019-02-10T14:15:43.529Z,97844.67
2019-02-10T14:18:11.598Z,97844.70
2019-02-10T14:20:38.360Z,97845.64
2019-02-10T14:23:05.585Z,97840.55
2019-02-10T14:25:32.521Z,97840.20
2019-02-10T14:27:59.865Z,97841.10
2019-02-10T14:30:27.731Z,97840.99
2019-02-10T14:32:54.400Z,97835.27
2019-02-10T14:35:21.433Z,97839.11
2019-02-10T14:37:49.280Z,97828.07
2019-02-10T14:40:16.275Z,97819.77
2019-02-10T14:42:43.827Z,97822.92
2019-02-10T14:45:12.849Z,97825.59
2019-02-10T14:47:39.926Z,97822.28
2019-02-10T14:50:08.932Z,97815.47
2019-02-10T14:52:36.060Z,97811.50
2019-02-10T14:55:04.163Z,97811.56
2019-02-10T14:57:31.211Z,97820.77
2019-02-10T14:59:58.006Z,97810.14
2019-02-10T15:02:25.510Z,97820.19
2019-02-10T15:04:52.774Z,97819.83
2019-02-10T15:07:25.262Z,97812.06
2019-02-10T15:09:49.289Z,97811.09
2019-02-10T15:12:16.078Z,97815.27
2019-02-10T15:14:43.043Z,97814.48
2019-02-10T15:17:10.462Z,97809.50
2019-02-10T15:19:37.584Z,97802.83
2019-02-10T15:22:04.301Z,97803.16
2019-02-10T15:24:31.446Z,97804.41
2019-02-10T15:26:59.576Z,97813.08
2019-02-10T15:29:27.111Z,97801.02
2019-02-10T15:31:55.013Z,97797.66
2019-02-10T15:34:22.433Z,97797.67
2019-02-10T15:36:49.115Z,97797.70
2019-02-10T15:39:16.052Z,97799.41
2019-02-10T15:41:42.914Z,97800.27
2019-02-10T15:44:10.314Z,97794.44
2019-02-10T15:46:37.238Z,97795.61
2019-02-10T15:49:04.112Z,97803.23
2019-02-10T15:51:36.919Z,97794.84
2019-02-10T15:53:59.847Z,97803.59
2019-02-10T15:56:26.536Z,97804.84
2019-02-10T15:58:53.344Z,97800.44
2019-02-10T16:01:20.326Z,97794.92
2019-02-10T16:03:47.004Z,97793.63
2019-02-10T16:06:14.105Z,97795.36
2019-02-10T16:08:41.314Z,97797.83
2019-02-10T16:11:08.546Z,97788.11
2019-02-10T16:13:35.449Z,97787.09
2019-02-10T16:16:02.170Z,97790.08
2019-02-10T16:18:29.822Z,97779.19
2019-02-10T16:20:56.614Z,97784.27
2019-02-10T16:23:23.277Z,97721.11
2019-02-10T16:25:49.986Z,97790.16
2019-02-10T16:28:17.166Z,97788.59
2019-02-10T16:30:44.424Z,97793.93
2019-02-10T16:33:12.907Z,97790.08
2019-02-10T16:35:39.578Z,97791.78
2019-02-10T16:38:06.678Z,97784.19
2019-02-10T16:40:33.525Z,97785.84
2019-02-10T16:43:00.177Z,97788.36
2019-02-10T16:45:28.016Z,97784.03
2019-02-10T16:47:54.703Z,97796.06
2019-02-10T16:50:21.624Z,97793.59
2019-02-10T16:52:48.377Z,97790.09
2019-02-10T16:55:15.066Z,97785.50
2019-02-10T16:57:42.611Z,97795.82
2019-02-10T17:00:10.895Z,97794.08
2019-02-10T17:02:37.917Z,97798.56
2019-02-10T17:05:05.692Z,97794.56
2019-02-10T17:07:33.330Z,97791.12
2019-02-10T17:10:00.289Z,97797.25
2019-02-10T17:12:27.018Z,97809.55
2019-02-10T17:14:54.297Z,97805.80
2019-02-10T17:17:21.765Z,97805.80
2019-02-10T17:19:49.182Z,97806.61
2019-02-10T17:22:16.220Z,97809.34
2019-02-10T17:24:42.926Z,97801.75
2019-02-10T17:27:10.481Z,97797.92
2019-02-10T17:29:39.493Z,97813.71
2019-02-10T17:32:06.518Z,97804.80
2019-02-10T17:34:33.250Z,97808.55
2019-02-10T17:36:59.937Z,97805.79
2019-02-10T17:39:26.645Z,97818.09
2019-02-10T17:41:53.609Z,97811.42
2019-02-10T17:44:20.626Z,97812.66
2019-02-10T17:46:47.301Z,97813.16
2019-02-10T17:49:14.321Z,97812.75
2019-02-10T17:51:41.572Z,97815.13
2019-02-10T17:54:08.806Z,97815.42
2019-02-10T17:56:35.521Z,97824.33
2019-02-10T17:59:03.590Z,97817.94
2019-02-10T18:01:30.256Z,97829.33
2019-02-10T18:03:58.142Z,97817.14
2019-02-10T18:06:24.886Z,97814.99
2019-02-10T18:08:51.926Z,97817.39
2019-02-10T18:11:19.084Z,97834.77
2019-02-10T18:13:45.900Z,97825.59
2019-02-10T18:16:30.786Z,97834.70
2019-02-10T18:19:06.153Z,97836.42
2019-02-10T18:21:48.524Z,97842.09
2019-02-10T18:24:34.743Z,97837.41
2019-02-10T18:27:21.310Z,97839.41
2019-02-10T18:30:07.586Z,97841.40
2019-02-10T18:32:41.846Z,97843.45
2019-02-10T18:35:47.025Z,97847.61
2019-02-10T18:38:22.434Z,97850.81
2019-02-10T18:41:07.724Z,97844.89
2019-02-10T18:43:42.939Z,97845.53
2019-02-10T18:46:20.056Z,97847.66
2019-02-10T18:49:01.080Z,97844.28
2019-02-10T18:51:46.865Z,97850.42
2019-02-10T18:54:21.094Z,97836.08
2019-02-10T18:57:08.507Z,97848.11
2019-02-10T18:59:58.849Z,97860.88
2019-02-10T19:02:49.030Z,97861.52
2019-02-10T19:05:28.342Z,97863.47
2019-02-10T19:08:04.738Z,97868.81
2019-02-10T19:10:50.427Z,97861.06
2019-02-10T19:13:40.100Z,97868.91
2019-02-10T19:16:18.490Z,97869.50
2019-02-10T19:18:52.009Z,97870.24
2019-02-10T19:21:34.754Z,97876.77
2019-02-10T19:24:24.518Z,97884.13
2019-02-10T19:27:09.605Z,97885.88
2019-02-10T19:30:11.758Z,97893.35
2019-02-10T19:33:08.646Z,97897.61
2019-02-10T19:35:46.631Z,97908.38
2019-02-10T19:38:24.835Z,97901.59
2019-02-10T19:41:01.221Z,97916.72
2019-02-10T19:43:50.926Z,97932.72
2019-02-10T19:46:52.289Z,97944.55
2019-02-10T19:49:42.245Z,97947.25
2019-02-10T19:52:37.969Z,97954.09
2019-02-10T19:55:17.005Z,97964.36
2019-02-10T19:58:03.957Z,97974.34
2019-02-10T20:04:14.266Z,97993.96
2019-02-10T20:06:50.914Z,98013.43
2019-02-10T20:09:40.070Z,98020.75
2019-02-10T20:12:26.498Z,98032.62
2019-02-10T20:15:13.229Z,98037.00
2019-02-10T20:18:00.065Z,98050.30
2019-02-10T20:20:35.529Z,98067.73
2019-02-10T20:23:24.634Z,98070.32
2019-02-10T20:26:11.230Z,98076.88
2019-02-10T20:29:05.269Z,98104.25
2019-02-10T20:31:51.359Z,98115.97
2019-02-10T20:34:35.597Z,98122.39
2019-02-10T20:37:15.560Z,98140.83
2019-02-10T20:40:06.261Z,98154.63
2019-02-10T20:42:40.786Z,98170.14
2019-02-10T20:45:14.178Z,98178.40
2019-02-10T20:51:10.417Z,98211.33
2019-02-10T20:53:47.002Z,98227.27
2019-02-10T20:56:18.610Z,98236.36
2019-02-10T20:59:05.742Z,98236.17
2019-02-10T21:01:42.854Z,98263.19
2019-02-10T21:04:32.791Z,98268.34
2019-02-10T21:07:22.200Z,98281.73
2019-02-10T21:10:08.473Z,98292.33
2019-02-10T21:12:54.975Z,98307.48
2019-02-10T21:15:39.891Z,98313.63
2019-02-10T21:18:20.540Z,98327.31
2019-02-10T21:21:06.880Z,98336.36
2019-02-10T21:23:52.399Z,98343.72
2019-02-10T21:26:48.694Z,98354.88
2019-02-10T21:29:24.299Z,98376.24
2019-02-10T21:32:15.146Z,98385.67
2019-02-10T21:34:54.091Z,98392.63
2019-02-10T21:37:49.876Z,98403.44
2019-02-10T21:40:33.682Z,98410.50
2019-02-10T21:43:11.090Z,98422.93
2019-02-10T21:46:03.041Z,98429.49
2019-02-10T21:48:35.704Z,98440.61
2019-02-10T21:51:02.950Z,98451.62
2019-02-10T21:53:29.623Z,98451.42
2019-02-10T21:55:56.425Z,98450.19
2019-02-10T21:58:23.678Z,98458.64
2019-02-10T22:00:51.237Z,98458.56
2019-02-10T22:03:19.025Z,98473.67
2019-02-10T22:05:46.640Z,98485.63
2019-02-10T22:08:14.522Z,98492.86
2019-02-10T22:10:44.038Z,98495.80
2019-02-10T22:13:11.176Z,98510.55
2019-02-10T22:15:37.921Z,98509.96
2019-02-10T22:18:04.791Z,98517.58
2019-02-10T22:20:32.533Z,98524.87
2019-02-10T22:23:00.010Z,98535.41
2019-02-10T22:25:29.406Z,98540.16
2019-02-10T22:27:56.515Z,98543.02
2019-02-10T22:30:23.629Z,98548.80
2019-02-10T22:32:51.388Z,98552.50
2019-02-10T22:35:19.367Z,98558.68
2019-02-10T22:37:46.783Z,98565.24
2019-02-10T22:40:14.086Z,98578.34
2019-02-10T22:42:45.895Z,98585.48
2019-02-10T22:45:11.230Z,98591.37
2019-02-10T22:47:38.146Z,98602.58
2019-02-10T22:50:06.782Z,98607.18
2019-02-10T22:52:34.255Z,98547.44
2019-02-10T22:55:01.592Z,98625.32
2019-02-10T22:57:29.268Z,98630.69
2019-02-10T22:59:57.545Z,98626.10
2019-02-10T23:02:24.538Z,98643.49
2019-02-10T23:04:52.354Z,98660.72
2019-02-10T23:07:19.087Z,98667.36
2019-02-10T23:09:47.486Z,98676.84
2019-02-10T23:12:15.568Z,98673.11
2019-02-10T23:14:42.942Z,98689.84
2019-02-10T23:17:10.065Z,98704.20
2019-02-10T23:19:37.534Z,98698.71
2019-02-10T23:22:05.444Z,98721.73
2019-02-10T23:24:33.273Z,98719.59
2019-02-10T23:26:59.953Z,98733.52
2019-02-10T23:29:27.854Z,98744.85
2019-02-10T23:31:55.102Z,98749.47
2019-02-10T23:34:21.790Z,98767.78
2019-02-10T23:36:49.723Z,98776.30
2019-02-10T23:39:17.013Z,98781.41
2019-02-10T23:41:44.577Z,98789.53
2019-02-10T23:44:16.693Z,98785.42
2019-02-10T23:46:44.673Z,98795.03
2019-02-10T23:49:12.775Z,98815.60
2019-02-10T23:51:40.217Z,98811.80
2019-02-10T23:54:07.796Z,98835.28
2019-02-10T23:56:35.004Z,98839.00
2019-02-10T23:59:02.675Z,98845.98
